sensor_id;sensor_type;location;lat;lon;timestamp;temperature;humidity
18091;DHT22;9172;49.948;9.208;2022-12-24T00:00:23;11.00;99.90
18091;DHT22;9172;49.948;9.208;2022-12-24T00:02:53;11.00;99.90
18091;DHT22;9172;49.948;9.208;2022-12-24T00:05:21;10.90;99.90
18091;DHT22;9172;49.948;9.208;2022-12-24T00:07:50;10.90;99.90
18091;DHT22;9172;49.948;9.208;2022-12-24T00:10:19;10.90;99.90
18091;DHT22;9172;49.948;9.208;2022-12-24T00:12:49;10.90;99.90
18091;DHT22;9172;49.948;9.208;2022-12-24T00:15:17;10.80;99.90
18091;DHT22;9172;49.948;9.208;2022-12-24T00:17:46;10.80;99.90
18091;DHT22;9172;49.948;9.208;2022-12-24T00:20:15;10.80;99.90
18091;DHT22;9172;49.948;9.208;2022-12-24T00:22:43;10.90;99.90
18091;DHT22;9172;49.948;9.208;2022-12-24T00:25:13;10.90;99.90
18091;DHT22;9172;49.948;9.208;2022-12-24T00:27:42;10.80;99.90
18091;DHT22;9172;49.948;9.208;2022-12-24T00:30:11;10.80;99.90
18091;DHT22;9172;49.948;9.208;2022-12-24T00:32:40;10.70;99.90
18091;DHT22;9172;49.948;9.208;2022-12-24T00:35:10;10.80;99.90
18091;DHT22;9172;49.948;9.208;2022-12-24T00:37:46;10.80;99.90
18091;DHT22;9172;49.948;9.208;2022-12-24T00:40:15;10.70;99.90
18091;DHT22;9172;49.948;9.208;2022-12-24T00:42:45;10.70;99.90
18091;DHT22;9172;49.948;9.208;2022-12-24T00:45:14;10.70;99.90
18091;DHT22;9172;49.948;9.208;2022-12-24T00:47:43;10.60;99.90
18091;DHT22;9172;49.948;9.208;2022-12-24T00:50:12;10.60;99.90
18091;DHT22;9172;49.948;9.208;2022-12-24T00:52:41;10.60;99.90
18091;DHT22;9172;49.948;9.208;2022-12-24T00:55:10;10.60;99.90
18091;DHT22;9172;49.948;9.208;2022-12-24T00:57:39;10.60;99.90
18091;DHT22;9172;49.948;9.208;2022-12-24T01:00:10;10.60;99.90
18091;DHT22;9172;49.948;9.208;2022-12-24T01:05:16;10.60;99.90
18091;DHT22;9172;49.948;9.208;2022-12-24T01:07:47;10.50;99.90
18091;DHT22;9172;49.948;9.208;2022-12-24T01:10:17;10.50;99.90
18091;DHT22;9172;49.948;9.208;2022-12-24T01:12:46;10.50;99.90
18091;DHT22;9172;49.948;9.208;2022-12-24T01:15:15;10.50;99.90
18091;DHT22;9172;49.948;9.208;2022-12-24T01:17:44;10.50;99.90
18091;DHT22;9172;49.948;9.208;2022-12-24T01:20:16;10.50;99.90
18091;DHT22;9172;49.948;9.208;2022-12-24T01:22:45;10.50;99.90
18091;DHT22;9172;49.948;9.208;2022-12-24T01:25:15;10.50;99.90
18091;DHT22;9172;49.948;9.208;2022-12-24T01:27:44;10.40;99.90
18091;DHT22;9172;49.948;9.208;2022-12-24T01:30:13;10.40;99.90
18091;DHT22;9172;49.948;9.208;2022-12-24T01:32:42;10.40;99.90
18091;DHT22;9172;49.948;9.208;2022-12-24T01:35:11;10.40;99.90
18091;DHT22;9172;49.948;9.208;2022-12-24T01:37:40;10.40;99.90
18091;DHT22;9172;49.948;9.208;2022-12-24T01:40:12;10.40;99.90
18091;DHT22;9172;49.948;9.208;2022-12-24T01:43:00;10.30;99.90
18091;DHT22;9172;49.948;9.208;2022-12-24T01:45:48;10.30;99.90
18091;DHT22;9172;49.948;9.208;2022-12-24T01:48:38;10.30;99.90
18091;DHT22;9172;49.948;9.208;2022-12-24T01:51:12;10.30;99.90
18091;DHT22;9172;49.948;9.208;2022-12-24T01:53:43;10.30;99.90
18091;DHT22;9172;49.948;9.208;2022-12-24T01:56:13;10.40;99.90
18091;DHT22;9172;49.948;9.208;2022-12-24T01:58:45;10.30;99.90
18091;DHT22;9172;49.948;9.208;2022-12-24T02:01:13;10.40;99.90
18091;DHT22;9172;49.948;9.208;2022-12-24T02:03:42;10.40;99.90
18091;DHT22;9172;49.948;9.208;2022-12-24T02:06:12;10.40;99.90
18091;DHT22;9172;49.948;9.208;2022-12-24T02:08:42;10.40;99.90
18091;DHT22;9172;49.948;9.208;2022-12-24T02:11:13;10.50;99.90
18091;DHT22;9172;49.948;9.208;2022-12-24T02:13:45;10.40;99.90
18091;DHT22;9172;49.948;9.208;2022-12-24T02:16:22;10.50;99.90
18091;DHT22;9172;49.948;9.208;2022-12-24T02:18:55;10.50;99.90
18091;DHT22;9172;49.948;9.208;2022-12-24T02:21:51;10.50;99.90
18091;DHT22;9172;49.948;9.208;2022-12-24T02:27:26;10.50;99.90
18091;DHT22;9172;49.948;9.208;2022-12-24T02:30:11;10.50;99.90
18091;DHT22;9172;49.948;9.208;2022-12-24T02:32:59;10.50;99.90
18091;DHT22;9172;49.948;9.208;2022-12-24T02:35:35;10.50;99.90
18091;DHT22;9172;49.948;9.208;2022-12-24T02:38:07;10.50;99.90
18091;DHT22;9172;49.948;9.208;2022-12-24T02:40:39;10.50;99.90
18091;DHT22;9172;49.948;9.208;2022-12-24T02:43:11;10.40;99.90
18091;DHT22;9172;49.948;9.208;2022-12-24T02:45:43;10.50;99.90
18091;DHT22;9172;49.948;9.208;2022-12-24T02:48:14;10.40;99.90
18091;DHT22;9172;49.948;9.208;2022-12-24T02:50:56;10.40;99.90
18091;DHT22;9172;49.948;9.208;2022-12-24T02:53:24;10.40;99.90
18091;DHT22;9172;49.948;9.208;2022-12-24T02:58:54;10.40;99.90
18091;DHT22;9172;49.948;9.208;2022-12-24T03:01:25;10.40;99.90
18091;DHT22;9172;49.948;9.208;2022-12-24T03:04:01;10.40;99.90
18091;DHT22;9172;49.948;9.208;2022-12-24T03:06:36;10.40;99.90
18091;DHT22;9172;49.948;9.208;2022-12-24T03:09:07;10.40;99.90
18091;DHT22;9172;49.948;9.208;2022-12-24T03:11:39;10.30;99.90
18091;DHT22;9172;49.948;9.208;2022-12-24T03:14:09;10.40;99.90
18091;DHT22;9172;49.948;9.208;2022-12-24T03:16:38;10.40;99.90
18091;DHT22;9172;49.948;9.208;2022-12-24T03:19:07;10.40;99.90
18091;DHT22;9172;49.948;9.208;2022-12-24T03:24:14;10.40;99.90
18091;DHT22;9172;49.948;9.208;2022-12-24T03:26:44;10.30;99.90
18091;DHT22;9172;49.948;9.208;2022-12-24T03:29:13;10.30;99.90
18091;DHT22;9172;49.948;9.208;2022-12-24T03:31:44;10.30;99.90
18091;DHT22;9172;49.948;9.208;2022-12-24T03:34:15;10.30;99.90
18091;DHT22;9172;49.948;9.208;2022-12-24T03:36:44;10.30;99.90
18091;DHT22;9172;49.948;9.208;2022-12-24T03:39:14;10.30;99.90
18091;DHT22;9172;49.948;9.208;2022-12-24T03:41:43;10.20;99.90
18091;DHT22;9172;49.948;9.208;2022-12-24T03:44:12;10.20;99.90
18091;DHT22;9172;49.948;9.208;2022-12-24T03:46:41;10.20;99.90
18091;DHT22;9172;49.948;9.208;2022-12-24T03:49:10;10.20;99.90
18091;DHT22;9172;49.948;9.208;2022-12-24T03:51:39;10.10;99.90
18091;DHT22;9172;49.948;9.208;2022-12-24T03:54:08;10.10;99.90
18091;DHT22;9172;49.948;9.208;2022-12-24T03:56:37;10.00;99.90
18091;DHT22;9172;49.948;9.208;2022-12-24T03:59:07;10.00;99.90
18091;DHT22;9172;49.948;9.208;2022-12-24T04:01:39;10.00;99.90
18091;DHT22;9172;49.948;9.208;2022-12-24T04:04:08;9.90;99.90
18091;DHT22;9172;49.948;9.208;2022-12-24T04:06:37;9.90;99.90
18091;DHT22;9172;49.948;9.208;2022-12-24T04:09:05;9.90;99.90
18091;DHT22;9172;49.948;9.208;2022-12-24T04:11:34;9.90;99.90
18091;DHT22;9172;49.948;9.208;2022-12-24T04:14:03;9.80;99.90
18091;DHT22;9172;49.948;9.208;2022-12-24T04:16:32;9.80;99.90
18091;DHT22;9172;49.948;9.208;2022-12-24T04:19:02;9.80;99.90
18091;DHT22;9172;49.948;9.208;2022-12-24T04:21:31;9.80;99.90
18091;DHT22;9172;49.948;9.208;2022-12-24T04:24:00;9.80;99.90
18091;DHT22;9172;49.948;9.208;2022-12-24T04:26:29;9.80;99.90
18091;DHT22;9172;49.948;9.208;2022-12-24T04:28:58;9.80;99.90
18091;DHT22;9172;49.948;9.208;2022-12-24T04:31:27;9.70;99.90
18091;DHT22;9172;49.948;9.208;2022-12-24T04:33:55;9.70;99.90
18091;DHT22;9172;49.948;9.208;2022-12-24T04:36:24;9.80;99.90
18091;DHT22;9172;49.948;9.208;2022-12-24T04:38:54;9.80;99.90
18091;DHT22;9172;49.948;9.208;2022-12-24T04:41:24;9.80;99.90
18091;DHT22;9172;49.948;9.208;2022-12-24T04:43:54;9.70;99.90
18091;DHT22;9172;49.948;9.208;2022-12-24T04:46:27;9.70;99.90
18091;DHT22;9172;49.948;9.208;2022-12-24T04:48:58;9.80;99.90
18091;DHT22;9172;49.948;9.208;2022-12-24T04:51:28;9.80;99.90
18091;DHT22;9172;49.948;9.208;2022-12-24T04:53:57;9.90;99.90
18091;DHT22;9172;49.948;9.208;2022-12-24T04:56:28;9.90;99.90
18091;DHT22;9172;49.948;9.208;2022-12-24T04:58:58;9.90;99.90
18091;DHT22;9172;49.948;9.208;2022-12-24T05:01:29;9.90;99.90
18091;DHT22;9172;49.948;9.208;2022-12-24T05:04:00;9.90;99.90
18091;DHT22;9172;49.948;9.208;2022-12-24T05:06:30;9.90;99.90
18091;DHT22;9172;49.948;9.208;2022-12-24T05:09:02;9.90;99.90
18091;DHT22;9172;49.948;9.208;2022-12-24T05:11:31;9.90;99.90
18091;DHT22;9172;49.948;9.208;2022-12-24T05:14:00;9.90;99.90
18091;DHT22;9172;49.948;9.208;2022-12-24T05:16:29;9.90;99.90
18091;DHT22;9172;49.948;9.208;2022-12-24T05:18:57;9.90;99.90
18091;DHT22;9172;49.948;9.208;2022-12-24T05:21:26;9.90;99.90
18091;DHT22;9172;49.948;9.208;2022-12-24T05:23:55;9.90;99.90
18091;DHT22;9172;49.948;9.208;2022-12-24T05:26:43;10.00;99.90
18091;DHT22;9172;49.948;9.208;2022-12-24T05:29:12;10.00;99.90
18091;DHT22;9172;49.948;9.208;2022-12-24T05:31:42;10.00;99.90
18091;DHT22;9172;49.948;9.208;2022-12-24T05:34:12;10.00;99.90
18091;DHT22;9172;49.948;9.208;2022-12-24T05:36:42;10.00;99.90
18091;DHT22;9172;49.948;9.208;2022-12-24T05:39:12;10.10;99.90
18091;DHT22;9172;49.948;9.208;2022-12-24T05:41:43;10.10;99.90
18091;DHT22;9172;49.948;9.208;2022-12-24T05:44:11;10.10;99.90
18091;DHT22;9172;49.948;9.208;2022-12-24T05:46:40;10.00;99.90
18091;DHT22;9172;49.948;9.208;2022-12-24T05:49:09;10.00;99.90
18091;DHT22;9172;49.948;9.208;2022-12-24T05:51:39;10.00;99.90
18091;DHT22;9172;49.948;9.208;2022-12-24T05:54:11;10.00;99.90
18091;DHT22;9172;49.948;9.208;2022-12-24T05:56:39;10.00;99.90
18091;DHT22;9172;49.948;9.208;2022-12-24T05:59:09;10.00;99.90
18091;DHT22;9172;49.948;9.208;2022-12-24T06:01:37;9.90;99.90
18091;DHT22;9172;49.948;9.208;2022-12-24T06:04:08;9.90;99.90
18091;DHT22;9172;49.948;9.208;2022-12-24T06:06:37;9.90;99.90
18091;DHT22;9172;49.948;9.208;2022-12-24T06:09:06;9.90;99.90
18091;DHT22;9172;49.948;9.208;2022-12-24T06:11:37;10.00;99.90
18091;DHT22;9172;49.948;9.208;2022-12-24T06:14:06;10.00;99.90
18091;DHT22;9172;49.948;9.208;2022-12-24T06:16:34;10.00;99.90
18091;DHT22;9172;49.948;9.208;2022-12-24T06:19:03;10.00;99.90
18091;DHT22;9172;49.948;9.208;2022-12-24T06:21:31;9.90;99.90
18091;DHT22;9172;49.948;9.208;2022-12-24T06:24:05;9.90;99.90
18091;DHT22;9172;49.948;9.208;2022-12-24T06:26:34;9.90;99.90
18091;DHT22;9172;49.948;9.208;2022-12-24T06:29:02;9.90;99.90
18091;DHT22;9172;49.948;9.208;2022-12-24T06:31:32;9.90;99.90
18091;DHT22;9172;49.948;9.208;2022-12-24T06:34:00;9.90;99.90
18091;DHT22;9172;49.948;9.208;2022-12-24T06:36:30;9.90;99.90
18091;DHT22;9172;49.948;9.208;2022-12-24T06:38:59;9.90;99.90
18091;DHT22;9172;49.948;9.208;2022-12-24T06:41:28;9.80;99.90
18091;DHT22;9172;49.948;9.208;2022-12-24T06:43:57;9.90;99.90
18091;DHT22;9172;49.948;9.208;2022-12-24T06:46:27;9.90;99.90
18091;DHT22;9172;49.948;9.208;2022-12-24T06:48:57;9.90;99.90
18091;DHT22;9172;49.948;9.208;2022-12-24T06:51:26;10.00;99.90
18091;DHT22;9172;49.948;9.208;2022-12-24T06:53:56;10.00;99.90
18091;DHT22;9172;49.948;9.208;2022-12-24T06:56:26;10.00;99.90
18091;DHT22;9172;49.948;9.208;2022-12-24T06:58:55;10.00;99.90
18091;DHT22;9172;49.948;9.208;2022-12-24T07:01:24;9.90;99.90
18091;DHT22;9172;49.948;9.208;2022-12-24T07:03:53;9.90;99.90
18091;DHT22;9172;49.948;9.208;2022-12-24T07:06:24;10.00;99.90
18091;DHT22;9172;49.948;9.208;2022-12-24T07:08:54;10.00;99.90
18091;DHT22;9172;49.948;9.208;2022-12-24T07:11:24;10.00;99.90
18091;DHT22;9172;49.948;9.208;2022-12-24T07:13:54;10.00;99.90
18091;DHT22;9172;49.948;9.208;2022-12-24T07:16:23;10.00;99.90
18091;DHT22;9172;49.948;9.208;2022-12-24T07:18:54;10.00;99.90
18091;DHT22;9172;49.948;9.208;2022-12-24T07:21:23;10.00;99.90
18091;DHT22;9172;49.948;9.208;2022-12-24T07:23:52;10.00;99.90
18091;DHT22;9172;49.948;9.208;2022-12-24T07:26:22;10.00;99.90
18091;DHT22;9172;49.948;9.208;2022-12-24T07:28:52;10.00;99.90
18091;DHT22;9172;49.948;9.208;2022-12-24T07:31:21;10.10;99.90
18091;DHT22;9172;49.948;9.208;2022-12-24T07:33:51;10.20;99.90
18091;DHT22;9172;49.948;9.208;2022-12-24T07:36:20;10.20;99.90
18091;DHT22;9172;49.948;9.208;2022-12-24T07:38:49;10.20;99.90
18091;DHT22;9172;49.948;9.208;2022-12-24T07:41:19;10.10;99.90
18091;DHT22;9172;49.948;9.208;2022-12-24T07:43:48;10.10;99.90
18091;DHT22;9172;49.948;9.208;2022-12-24T07:46:19;10.20;99.90
18091;DHT22;9172;49.948;9.208;2022-12-24T07:48:47;10.10;99.90
18091;DHT22;9172;49.948;9.208;2022-12-24T07:51:16;10.10;99.90
18091;DHT22;9172;49.948;9.208;2022-12-24T07:53:45;10.20;99.90
18091;DHT22;9172;49.948;9.208;2022-12-24T07:56:15;10.20;99.90
18091;DHT22;9172;49.948;9.208;2022-12-24T07:58:46;10.30;99.90
18091;DHT22;9172;49.948;9.208;2022-12-24T08:01:14;10.30;99.90
18091;DHT22;9172;49.948;9.208;2022-12-24T08:03:43;10.30;99.90
18091;DHT22;9172;49.948;9.208;2022-12-24T08:06:12;10.40;99.90
18091;DHT22;9172;49.948;9.208;2022-12-24T08:08:41;10.30;99.90
18091;DHT22;9172;49.948;9.208;2022-12-24T08:14:06;10.30;99.90
18091;DHT22;9172;49.948;9.208;2022-12-24T08:16:36;10.30;99.90
18091;DHT22;9172;49.948;9.208;2022-12-24T08:21:44;10.30;99.90
18091;DHT22;9172;49.948;9.208;2022-12-24T08:26:58;10.30;99.90
18091;DHT22;9172;49.948;9.208;2022-12-24T08:29:27;10.20;99.90
18091;DHT22;9172;49.948;9.208;2022-12-24T08:31:56;10.20;99.90
18091;DHT22;9172;49.948;9.208;2022-12-24T08:37:01;10.10;99.90
18091;DHT22;9172;49.948;9.208;2022-12-24T08:39:31;10.20;99.90
18091;DHT22;9172;49.948;9.208;2022-12-24T08:44:36;10.20;99.90
18091;DHT22;9172;49.948;9.208;2022-12-24T08:47:05;10.10;99.90
18091;DHT22;9172;49.948;9.208;2022-12-24T08:49:35;10.10;99.90
18091;DHT22;9172;49.948;9.208;2022-12-24T08:52:04;10.10;99.90
18091;DHT22;9172;49.948;9.208;2022-12-24T08:54:33;10.10;99.90
18091;DHT22;9172;49.948;9.208;2022-12-24T08:59:54;10.10;99.90
18091;DHT22;9172;49.948;9.208;2022-12-24T09:02:23;10.10;99.90
18091;DHT22;9172;49.948;9.208;2022-12-24T09:04:53;10.10;99.90
18091;DHT22;9172;49.948;9.208;2022-12-24T09:07:21;10.10;99.90
18091;DHT22;9172;49.948;9.208;2022-12-24T09:09:50;10.10;99.90
18091;DHT22;9172;49.948;9.208;2022-12-24T09:12:20;10.00;99.90
18091;DHT22;9172;49.948;9.208;2022-12-24T09:14:51;10.00;99.90
18091;DHT22;9172;49.948;9.208;2022-12-24T09:17:20;10.10;99.90
18091;DHT22;9172;49.948;9.208;2022-12-24T09:19:50;10.10;99.90
18091;DHT22;9172;49.948;9.208;2022-12-24T09:22:18;10.20;99.90
18091;DHT22;9172;49.948;9.208;2022-12-24T09:24:47;10.20;99.90
18091;DHT22;9172;49.948;9.208;2022-12-24T09:27:17;10.10;99.90
18091;DHT22;9172;49.948;9.208;2022-12-24T09:29:45;10.10;99.90
18091;DHT22;9172;49.948;9.208;2022-12-24T09:32:14;10.00;99.90
18091;DHT22;9172;49.948;9.208;2022-12-24T09:34:43;10.10;99.90
18091;DHT22;9172;49.948;9.208;2022-12-24T09:37:14;10.00;99.90
18091;DHT22;9172;49.948;9.208;2022-12-24T09:39:46;10.00;99.90
18091;DHT22;9172;49.948;9.208;2022-12-24T09:42:20;10.00;99.90
18091;DHT22;9172;49.948;9.208;2022-12-24T09:44:53;10.00;99.90
18091;DHT22;9172;49.948;9.208;2022-12-24T09:47:24;10.00;99.90
18091;DHT22;9172;49.948;9.208;2022-12-24T09:49:56;10.00;99.90
18091;DHT22;9172;49.948;9.208;2022-12-24T09:52:32;10.10;99.90
18091;DHT22;9172;49.948;9.208;2022-12-24T09:55:06;10.10;99.90
18091;DHT22;9172;49.948;9.208;2022-12-24T09:57:37;10.10;99.90
18091;DHT22;9172;49.948;9.208;2022-12-24T10:00:16;10.10;99.90
18091;DHT22;9172;49.948;9.208;2022-12-24T10:02:46;10.10;99.90
18091;DHT22;9172;49.948;9.208;2022-12-24T10:05:16;10.00;99.90
18091;DHT22;9172;49.948;9.208;2022-12-24T10:10:29;10.00;99.90
18091;DHT22;9172;49.948;9.208;2022-12-24T10:13:01;10.00;99.90
18091;DHT22;9172;49.948;9.208;2022-12-24T10:18:20;10.00;99.90
18091;DHT22;9172;49.948;9.208;2022-12-24T10:23:31;10.00;99.90
18091;DHT22;9172;49.948;9.208;2022-12-24T10:26:07;10.00;99.90
18091;DHT22;9172;49.948;9.208;2022-12-24T10:28:41;10.00;99.90
18091;DHT22;9172;49.948;9.208;2022-12-24T10:31:11;10.10;99.90
18091;DHT22;9172;49.948;9.208;2022-12-24T10:33:42;10.10;99.90
18091;DHT22;9172;49.948;9.208;2022-12-24T10:36:15;10.10;99.90
18091;DHT22;9172;49.948;9.208;2022-12-24T10:38:46;10.10;99.90
18091;DHT22;9172;49.948;9.208;2022-12-24T10:41:16;10.10;99.90
18091;DHT22;9172;49.948;9.208;2022-12-24T10:43:46;10.10;99.90
18091;DHT22;9172;49.948;9.208;2022-12-24T10:46:21;10.10;99.90
18091;DHT22;9172;49.948;9.208;2022-12-24T10:48:52;10.20;99.90
18091;DHT22;9172;49.948;9.208;2022-12-24T10:51:27;10.30;99.90
18091;DHT22;9172;49.948;9.208;2022-12-24T10:53:58;10.30;99.90
18091;DHT22;9172;49.948;9.208;2022-12-24T10:56:27;10.40;99.90
18091;DHT22;9172;49.948;9.208;2022-12-24T10:59:00;10.40;99.90
18091;DHT22;9172;49.948;9.208;2022-12-24T11:01:44;10.40;99.90
18091;DHT22;9172;49.948;9.208;2022-12-24T11:04:17;10.40;99.90
18091;DHT22;9172;49.948;9.208;2022-12-24T11:06:54;10.50;99.90
18091;DHT22;9172;49.948;9.208;2022-12-24T11:09:25;10.50;99.90
18091;DHT22;9172;49.948;9.208;2022-12-24T11:11:56;10.50;99.90
18091;DHT22;9172;49.948;9.208;2022-12-24T11:14:32;10.50;99.90
18091;DHT22;9172;49.948;9.208;2022-12-24T11:16:58;10.50;99.90
18091;DHT22;9172;49.948;9.208;2022-12-24T11:19:31;10.50;99.90
18091;DHT22;9172;49.948;9.208;2022-12-24T11:22:03;10.50;99.90
18091;DHT22;9172;49.948;9.208;2022-12-24T11:24:34;10.60;99.90
18091;DHT22;9172;49.948;9.208;2022-12-24T11:27:31;10.60;99.90
18091;DHT22;9172;49.948;9.208;2022-12-24T11:30:22;10.70;99.90
18091;DHT22;9172;49.948;9.208;2022-12-24T11:33:15;10.80;99.90
18091;DHT22;9172;49.948;9.208;2022-12-24T11:35:47;10.80;99.90
18091;DHT22;9172;49.948;9.208;2022-12-24T11:38:22;10.80;99.90
18091;DHT22;9172;49.948;9.208;2022-12-24T11:41:03;10.80;99.90
18091;DHT22;9172;49.948;9.208;2022-12-24T11:43:39;10.80;99.90
18091;DHT22;9172;49.948;9.208;2022-12-24T11:46:14;11.00;99.90
18091;DHT22;9172;49.948;9.208;2022-12-24T11:48:44;11.00;99.90
18091;DHT22;9172;49.948;9.208;2022-12-24T11:51:22;11.00;99.90
18091;DHT22;9172;49.948;9.208;2022-12-24T11:53:57;11.00;99.90
18091;DHT22;9172;49.948;9.208;2022-12-24T11:56:32;11.00;99.90
18091;DHT22;9172;49.948;9.208;2022-12-24T11:59:08;11.00;99.90
18091;DHT22;9172;49.948;9.208;2022-12-24T12:01:41;11.00;99.90
18091;DHT22;9172;49.948;9.208;2022-12-24T12:04:13;11.00;99.90
18091;DHT22;9172;49.948;9.208;2022-12-24T12:09:24;11.00;99.90
18091;DHT22;9172;49.948;9.208;2022-12-24T12:12:05;11.00;99.90
18091;DHT22;9172;49.948;9.208;2022-12-24T12:14:41;11.00;99.90
18091;DHT22;9172;49.948;9.208;2022-12-24T12:17:15;10.90;99.90
18091;DHT22;9172;49.948;9.208;2022-12-24T12:19:45;10.90;99.90
18091;DHT22;9172;49.948;9.208;2022-12-24T12:22:21;11.00;99.90
18091;DHT22;9172;49.948;9.208;2022-12-24T12:24:52;11.00;99.90
18091;DHT22;9172;49.948;9.208;2022-12-24T12:27:27;11.00;99.90
18091;DHT22;9172;49.948;9.208;2022-12-24T12:29:59;10.90;99.90
18091;DHT22;9172;49.948;9.208;2022-12-24T12:32:35;10.90;99.90
18091;DHT22;9172;49.948;9.208;2022-12-24T12:35:04;10.90;99.90
18091;DHT22;9172;49.948;9.208;2022-12-24T12:37:37;10.80;99.90
18091;DHT22;9172;49.948;9.208;2022-12-24T12:40:13;10.80;99.90
18091;DHT22;9172;49.948;9.208;2022-12-24T12:42:45;10.70;99.90
18091;DHT22;9172;49.948;9.208;2022-12-24T12:48:30;10.70;99.90
18091;DHT22;9172;49.948;9.208;2022-12-24T12:53:49;10.60;99.90
18091;DHT22;9172;49.948;9.208;2022-12-24T12:56:25;10.60;99.90
18091;DHT22;9172;49.948;9.208;2022-12-24T12:58:58;10.60;99.90
18091;DHT22;9172;49.948;9.208;2022-12-24T13:04:32;10.60;99.90
18091;DHT22;9172;49.948;9.208;2022-12-24T13:07:27;10.70;99.90
18091;DHT22;9172;49.948;9.208;2022-12-24T13:10:20;10.70;99.90
18091;DHT22;9172;49.948;9.208;2022-12-24T13:18:58;10.80;99.90
18091;DHT22;9172;49.948;9.208;2022-12-24T13:21:29;10.80;99.90
18091;DHT22;9172;49.948;9.208;2022-12-24T13:24:13;10.80;99.90
18091;DHT22;9172;49.948;9.208;2022-12-24T13:26:42;10.70;99.90
18091;DHT22;9172;49.948;9.208;2022-12-24T13:29:41;10.70;99.90
18091;DHT22;9172;49.948;9.208;2022-12-24T13:32:46;10.70;99.90
18091;DHT22;9172;49.948;9.208;2022-12-24T13:38:47;10.80;99.90
18091;DHT22;9172;49.948;9.208;2022-12-24T13:41:37;10.90;99.90
18091;DHT22;9172;49.948;9.208;2022-12-24T13:44:20;10.90;99.90
18091;DHT22;9172;49.948;9.208;2022-12-24T13:46:54;11.00;99.90
18091;DHT22;9172;49.948;9.208;2022-12-24T13:49:30;11.00;99.90
18091;DHT22;9172;49.948;9.208;2022-12-24T13:55:14;10.90;99.90
18091;DHT22;9172;49.948;9.208;2022-12-24T13:57:53;10.90;99.90
18091;DHT22;9172;49.948;9.208;2022-12-24T14:00:29;11.00;99.90
18091;DHT22;9172;49.948;9.208;2022-12-24T14:03:01;11.00;99.90
18091;DHT22;9172;49.948;9.208;2022-12-24T14:05:35;11.00;99.90
18091;DHT22;9172;49.948;9.208;2022-12-24T14:08:05;11.00;99.90
18091;DHT22;9172;49.948;9.208;2022-12-24T14:10:39;11.00;99.90
18091;DHT22;9172;49.948;9.208;2022-12-24T14:16:07;11.00;99.90
18091;DHT22;9172;49.948;9.208;2022-12-24T14:18:40;11.00;99.90
18091;DHT22;9172;49.948;9.208;2022-12-24T14:21:15;11.00;99.90
18091;DHT22;9172;49.948;9.208;2022-12-24T14:23:50;10.90;99.90
18091;DHT22;9172;49.948;9.208;2022-12-24T14:26:21;10.90;99.90
18091;DHT22;9172;49.948;9.208;2022-12-24T14:28:54;10.80;99.90
18091;DHT22;9172;49.948;9.208;2022-12-24T14:31:23;10.90;99.90
18091;DHT22;9172;49.948;9.208;2022-12-24T14:34:05;10.80;99.90
18091;DHT22;9172;49.948;9.208;2022-12-24T14:36:34;10.80;99.90
18091;DHT22;9172;49.948;9.208;2022-12-24T14:39:05;10.70;99.90
18091;DHT22;9172;49.948;9.208;2022-12-24T14:41:43;10.70;99.90
18091;DHT22;9172;49.948;9.208;2022-12-24T14:44:18;10.70;99.90
18091;DHT22;9172;49.948;9.208;2022-12-24T14:46:51;10.70;99.90
18091;DHT22;9172;49.948;9.208;2022-12-24T14:49:28;10.60;99.90
18091;DHT22;9172;49.948;9.208;2022-12-24T14:52:01;10.60;99.90
18091;DHT22;9172;49.948;9.208;2022-12-24T14:54:35;10.60;99.90
18091;DHT22;9172;49.948;9.208;2022-12-24T14:57:21;10.60;99.90
18091;DHT22;9172;49.948;9.208;2022-12-24T14:59:51;10.50;99.90
18091;DHT22;9172;49.948;9.208;2022-12-24T15:02:29;10.50;99.90
18091;DHT22;9172;49.948;9.208;2022-12-24T15:05:11;10.50;99.90
18091;DHT22;9172;49.948;9.208;2022-12-24T15:07:43;10.40;99.90
18091;DHT22;9172;49.948;9.208;2022-12-24T15:10:26;10.40;99.90
18091;DHT22;9172;49.948;9.208;2022-12-24T15:12:57;10.40;99.90
18091;DHT22;9172;49.948;9.208;2022-12-24T15:18:05;10.40;99.90
18091;DHT22;9172;49.948;9.208;2022-12-24T15:20:36;10.30;99.90
18091;DHT22;9172;49.948;9.208;2022-12-24T15:23:15;10.30;99.90
18091;DHT22;9172;49.948;9.208;2022-12-24T15:25:35;10.30;99.90
18091;DHT22;9172;49.948;9.208;2022-12-24T15:28:16;10.30;99.90
18091;DHT22;9172;49.948;9.208;2022-12-24T15:30:46;10.30;99.90
18091;DHT22;9172;49.948;9.208;2022-12-24T15:33:15;10.30;99.90
18091;DHT22;9172;49.948;9.208;2022-12-24T15:35:49;10.30;99.90
18091;DHT22;9172;49.948;9.208;2022-12-24T15:38:25;10.20;99.90
18091;DHT22;9172;49.948;9.208;2022-12-24T15:40:54;10.20;99.90
18091;DHT22;9172;49.948;9.208;2022-12-24T15:43:24;10.20;99.90
18091;DHT22;9172;49.948;9.208;2022-12-24T15:45:53;10.10;99.90
18091;DHT22;9172;49.948;9.208;2022-12-24T15:48:24;10.10;99.90
18091;DHT22;9172;49.948;9.208;2022-12-24T15:50:55;10.00;99.90
18091;DHT22;9172;49.948;9.208;2022-12-24T15:56:07;10.00;99.90
18091;DHT22;9172;49.948;9.208;2022-12-24T15:58:37;10.00;99.90
18091;DHT22;9172;49.948;9.208;2022-12-24T16:04:12;10.00;99.90
18091;DHT22;9172;49.948;9.208;2022-12-24T16:06:56;10.00;99.90
18091;DHT22;9172;49.948;9.208;2022-12-24T16:09:40;10.00;99.90
18091;DHT22;9172;49.948;9.208;2022-12-24T16:12:19;9.90;99.90
18091;DHT22;9172;49.948;9.208;2022-12-24T16:14:50;9.90;99.90
18091;DHT22;9172;49.948;9.208;2022-12-24T16:17:22;9.80;99.90
18091;DHT22;9172;49.948;9.208;2022-12-24T16:19:52;9.80;99.90
18091;DHT22;9172;49.948;9.208;2022-12-24T16:22:22;9.80;99.90
18091;DHT22;9172;49.948;9.208;2022-12-24T16:27:32;9.80;99.90
18091;DHT22;9172;49.948;9.208;2022-12-24T16:30:01;9.80;99.90
18091;DHT22;9172;49.948;9.208;2022-12-24T16:32:32;9.80;99.90
18091;DHT22;9172;49.948;9.208;2022-12-24T16:35:03;9.80;99.90
18091;DHT22;9172;49.948;9.208;2022-12-24T16:37:32;9.80;99.90
18091;DHT22;9172;49.948;9.208;2022-12-24T16:40:02;9.70;99.90
18091;DHT22;9172;49.948;9.208;2022-12-24T16:42:31;9.70;99.90
18091;DHT22;9172;49.948;9.208;2022-12-24T16:45:17;9.70;99.90
18091;DHT22;9172;49.948;9.208;2022-12-24T16:47:45;9.70;99.90
18091;DHT22;9172;49.948;9.208;2022-12-24T16:50:16;9.60;99.90
18091;DHT22;9172;49.948;9.208;2022-12-24T16:52:46;9.50;99.90
18091;DHT22;9172;49.948;9.208;2022-12-24T16:55:15;9.50;99.90
18091;DHT22;9172;49.948;9.208;2022-12-24T16:57:44;9.40;99.90
18091;DHT22;9172;49.948;9.208;2022-12-24T17:00:18;9.40;99.90
18091;DHT22;9172;49.948;9.208;2022-12-24T17:05:24;9.40;99.90
18091;DHT22;9172;49.948;9.208;2022-12-24T17:07:53;9.40;99.90
18091;DHT22;9172;49.948;9.208;2022-12-24T17:10:22;9.30;99.90
18091;DHT22;9172;49.948;9.208;2022-12-24T17:12:50;9.40;99.90
18091;DHT22;9172;49.948;9.208;2022-12-24T17:15:19;9.40;99.90
18091;DHT22;9172;49.948;9.208;2022-12-24T17:17:47;9.30;99.90
18091;DHT22;9172;49.948;9.208;2022-12-24T17:20:16;9.30;99.90
18091;DHT22;9172;49.948;9.208;2022-12-24T17:22:45;9.20;99.90
18091;DHT22;9172;49.948;9.208;2022-12-24T17:25:14;9.20;99.90
18091;DHT22;9172;49.948;9.208;2022-12-24T17:30:20;9.10;99.90
18091;DHT22;9172;49.948;9.208;2022-12-24T17:32:48;9.20;99.90
18091;DHT22;9172;49.948;9.208;2022-12-24T17:35:17;9.20;99.90
18091;DHT22;9172;49.948;9.208;2022-12-24T17:37:46;9.20;99.90